A- A+ FrançaisEnglishEspañol中国

Services sur Internet Soldes sur Internet Des idées de cadeaux Météo Météo aéro

La météo à : Autours de vous Paris-Charles-De-Gaulle Tarbes-Lourdes-PyrénéesLyon-Bron Rouen-Boos

La météo aéronautique pour les pilotes, la préparation du vol avec les METAR (METeorological Aerodrome Report, message d'observation des conditions météorologiques pour l'aviation) et Les TAF (Terminal Aerodrome Forecast : message de prévision à court terme des conditions météorologiques pour l'aviation). Et les autres ressources comme les VAC (Visual Approch Chart) et les NOTAM (Notice To Airman) pour préprer les vols.

Aéroport Washington Dulles (USA) / OACI KIAD/ IATA IAD

L'altitude de l'aéroport Washington Dulles est de 95 m = 312 ft. Il est situé à proximité de Washington (USA). La météo générale à 5 jours est disponible pour City of Fairfax situé à 16.9 km.

METAR de l'aéroport Washington Dulles - KIAD

KIAD 090652Z 00000KT 10SM OVC075 06/02 A3020 RMK AO2 SLP229 T00610022

Décodage du METAR de l'aéroport Washington Dulles (US)

METAR émis par KIAD le lundi 9 décembre 2019 à 06:52 heure TU. Attention ce METAR est obsolète car il a été émis il y a 59 minutes.

La visibilité est de 16.1 km = 10 sm.

La température est de 6°C = 43 °F et le point rosée est de 2°C = 36 °F . Ce qui correspond à 76% d'humidité relative.

Le QNH est de 1023 hPa = 30.21 inHg

Vent de 0 kt = 0 km/h, orienté à 0°.

Nuages : Couverture nuageuse soudée à 7500 ft = 2290 mètres.

RMK AO2 SLP229 T00610022

TAF de l'aéroport Washington Dulles - KIAD

KIAD 051455Z 0515/0618 30015G25KT P6SM SCT050 FM052200 30007KT P6SM SCT100 FM060800 18003KT P6SM BKN090

KIAD 051455Z 0515/0618 30015G25KT P6SM nuages épars à 050 FM052200 30007KT P6SM nuages épars à 100 FM060800 18003KT P6SM couverture nuageuse fragmentée à 090

Aéroport à proximité de Washington Dulles

Météo générale à 5 jours à City of Fairfax (16.9 km)Aéroport Leesburg Mun Godfrey (17 km)Aéroport Manassas Regl Davis (25 km)Aéroport Ft Belvoir Davison AAF (35 km)Aéroport Montgomery Co (35 km)Aéroport Washington National (38 km)Aéroport College Park (46 km)

VAC de l'aéroport Washington Dulles - KIAD

La carte d'approche à vue (VAC Visual Approah Chart) est fournie sans aucune garantie de son actualité. Le pilote est le seul responsable de la vérification de sa validité avant de l'utiliser opérationnellement pour préparer un vol ou l'utiliser lors de sa navigation.

VAC de KIAD

Vue aérienne de l'aéroport Washington Dulles

NOTAM de l'aéroport Washington Dulles

Les NOTAM sont fournis sans aucune garantie de leur actualité. Le pilote est le seul responsable de la vérification de sa validité avant de l'utiliser opérationnellement pour préparer un vol ou l'utiliser lors de sa navigation.

Pas de NOTAM

Sources des données